Time;durP1;ratioP1;P1;durP2;ratioP2;P2;SDS_P1;SDS_P2;PMS_P1;PMS_P2;Temp;Humidity;BMP_temperature;BMP_pressure;BME280_temperature;BME280_humidity;BME280_pressure;Samples;Min_cycle;Max_cycle;Signal;HPM_P1;HPM_P2
2023/10/24 00:02:25;;;;;;;34.37;10.20;;;;;;;-143.21;64.49;72274.47;4982821;28;20228;-84
2023/10/24 00:04:52;;;;;;;34.53;10.40;;;;;;;-143.21;64.36;72284.38;4982564;28;20204;-85
2023/10/24 00:07:19;;;;;;;29.23;9.87;;;;;;;-143.21;64.49;72286.34;4985718;28;20207;-84
2023/10/24 00:09:52;;;;;;;27.23;9.53;;;;;;;-143.21;64.56;72294.28;4978277;28;20205;-85
2023/10/24 00:12:19;;;;;;;32.80;9.63;;;;;;;-143.21;64.69;72294.28;4985676;28;20196;-84
2023/10/24 00:14:47;;;;;;;29.80;9.77;;;;;;;-143.21;65.22;72304.19;4984355;28;20207;-85
2023/10/24 00:17:14;;;;;;;27.37;9.47;;;;;;;-143.21;65.06;72304.19;4979871;28;20200;-92
2023/10/24 00:19:41;;;;;;;29.93;9.30;;;;;;;-143.21;65.10;72298.25;4993934;28;20215;-92
2023/10/24 00:22:08;;;;;;;25.50;9.67;;;;;;;-143.21;65.30;72302.22;4978433;28;20240;-91
2023/10/24 00:24:35;;;;;;;30.37;9.67;;;;;;;-143.21;65.35;72320.06;4982175;28;20649;-89
2023/10/24 00:27:02;;;;;;;22.70;9.70;;;;;;;-143.21;64.93;72318.09;4980586;28;20236;-90
2023/10/24 00:29:29;;;;;;;24.47;9.30;;;;;;;-143.21;65.36;72320.06;4977569;28;20209;-90
2023/10/24 00:31:57;;;;;;;27.40;9.37;;;;;;;-143.21;65.55;72328.00;4981007;28;20236;-90
2023/10/24 00:34:24;;;;;;;24.73;8.90;;;;;;;-143.21;65.71;72337.91;4984881;28;20216;-90
2023/10/24 00:36:51;;;;;;;28.17;8.17;;;;;;;-143.21;65.27;72337.91;4989266;28;20216;-91
2023/10/24 00:39:18;;;;;;;23.73;8.37;;;;;;;-143.21;65.37;72337.91;4989170;28;20204;-90
2023/10/24 00:41:45;;;;;;;29.17;9.10;;;;;;;-143.21;65.63;72335.94;4982853;28;20206;-92
2023/10/24 00:44:15;;;;;;;21.73;7.80;;;;;;;-143.21;65.59;72349.81;4973734;28;20212;-92
2023/10/24 00:46:43;;;;;;;27.30;9.27;;;;;;;-143.21;65.91;72347.84;4984860;28;20551;-91
2023/10/24 00:49:11;;;;;;;26.77;9.53;;;;;;;-143.21;65.92;72349.81;4983538;28;20200;-90
2023/10/24 00:51:39;;;;;;;29.57;10.33;;;;;;;-143.21;66.05;72357.75;4987962;28;20189;-90
2023/10/24 00:54:07;;;;;;;22.63;8.77;;;;;;;-143.21;66.25;72363.69;4980499;28;20631;-90
2023/10/24 00:56:35;;;;;;;25.43;8.97;;;;;;;-143.21;65.90;72363.69;4974132;28;20197;-91
2023/10/24 00:59:03;;;;;;;30.43;9.67;;;;;;;-143.21;65.98;72361.72;4974013;28;20283;-90
2023/10/24 01:01:31;;;;;;;25.60;7.80;;;;;;;-143.21;66.38;72375.59;4977306;28;20212;-90
2023/10/24 01:03:59;;;;;;;29.53;8.43;;;;;;;-143.21;66.32;72383.53;4980177;28;20243;-89
2023/10/24 01:06:28;;;;;;;29.20;8.70;;;;;;;-143.21;66.24;72371.63;4976977;28;20659;-90
2023/10/24 01:08:55;;;;;;;30.47;9.67;;;;;;;-143.21;66.36;72371.63;4979527;28;20209;-90
2023/10/24 01:11:23;;;;;;;27.40;9.00;;;;;;;-143.21;66.27;72377.56;4976801;28;20212;-91
2023/10/24 01:13:50;;;;;;;31.77;9.10;;;;;;;-143.21;66.27;72381.53;4978887;28;20578;-90
2023/10/24 01:16:18;;;;;;;23.87;9.23;;;;;;;-143.21;66.24;72385.50;4977282;28;20197;-89
2023/10/24 01:18:45;;;;;;;26.43;8.90;;;;;;;-143.21;66.40;72385.50;4978180;28;20280;-91
2023/10/24 01:21:12;;;;;;;29.20;9.30;;;;;;;-143.21;66.36;72381.53;4984071;28;20213;-91
2023/10/24 01:23:40;;;;;;;31.90;9.70;;;;;;;-143.21;66.17;72383.53;4976283;28;20711;-90
2023/10/24 01:26:09;;;;;;;26.47;9.17;;;;;;;-143.21;66.02;72379.56;4974215;28;20212;-90
2023/10/24 01:28:36;;;;;;;23.60;8.80;;;;;;;-143.21;66.35;72375.59;4987503;28;20239;-90
2023/10/24 01:31:03;;;;;;;26.20;8.57;;;;;;;-143.21;66.28;72383.53;4983374;28;20580;-90
2023/10/24 01:33:30;;;;;;;24.37;9.53;;;;;;;-143.21;66.61;72393.44;4979824;28;20208;-89
2023/10/24 01:35:57;;;;;;;28.10;11.07;;;;;;;-143.21;66.48;72387.50;4977957;28;20208;-91
2023/10/24 01:38:25;;;;;;;25.37;10.40;;;;;;;-143.21;66.43;72387.50;4984347;28;20204;-90
2023/10/24 01:40:53;;;;;;;32.87;10.53;;;;;;;-143.21;66.58;72387.50;4980002;28;20215;-90
2023/10/24 01:43:20;;;;;;;28.80;10.10;;;;;;;-143.21;66.69;72397.41;4974437;28;20224;-91
2023/10/24 01:45:47;;;;;;;31.10;9.80;;;;;;;-143.21;66.46;72387.50;4979914;28;20678;-91
2023/10/24 01:48:14;;;;;;;24.37;9.77;;;;;;;-143.21;66.79;72397.41;4976237;28;20208;-89
2023/10/24 01:50:41;;;;;;;26.23;10.20;;;;;;;-143.21;66.69;72403.34;4982026;28;20204;-90
2023/10/24 01:53:08;;;;;;;23.10;9.93;;;;;;;-143.21;66.68;72403.34;4978136;28;20245;-89
2023/10/24 01:55:34;;;;;;;26.77;9.83;;;;;;;-143.21;66.63;72413.28;4976518;28;20217;-89
2023/10/24 01:58:03;;;;;;;29.20;9.57;;;;;;;-143.21;67.03;72423.19;4985981;28;20283;-89
2023/10/24 02:00:30;;;;;;;28.90;9.13;;;;;;;-143.21;67.32;72431.13;4975648;28;20591;-89
2023/10/24 02:02:56;;;;;;;30.97;9.80;;;;;;;-143.21;67.24;72425.19;4983530;28;20233;-90
2023/10/24 02:05:23;;;;;;;20.70;9.13;;;;;;;-143.21;67.20;72431.13;4974509;28;20262;-89
2023/10/24 02:07:50;;;;;;;22.43;10.77;;;;;;;-143.21;67.08;72421.22;4971026;28;20201;-91
2023/10/24 02:10:17;;;;;;;30.10;13.80;;;;;;;-143.21;67.26;72431.13;4981564;28;20205;-90
2023/10/24 02:12:44;;;;;;;44.50;15.07;;;;;;;-143.21;67.63;72437.06;4976608;28;20571;-90
2023/10/24 02:15:13;;;;;;;43.23;16.70;;;;;;;-143.21;67.69;72433.09;4975116;28;20212;-90
2023/10/24 02:17:41;;;;;;;36.87;17.13;;;;;;;-143.21;67.46;72433.09;4977520;28;20219;-89
2023/10/24 02:20:10;;;;;;;35.07;16.77;;;;;;;-143.21;67.53;72437.06;4980347;28;20271;-91
2023/10/24 02:22:37;;;;;;;32.37;15.10;;;;;;;-143.21;67.58;72435.09;4980881;28;20266;-90
2023/10/24 02:25:05;;;;;;;28.63;14.30;;;;;;;-143.21;67.69;72439.06;4986621;28;20211;-90
2023/10/24 02:27:34;;;;;;;24.97;12.93;;;;;;;-143.21;67.74;72441.03;4982513;28;20220;-89
2023/10/24 02:30:02;;;;;;;31.43;14.00;;;;;;;-143.21;68.08;72450.97;4985578;28;20667;-89
2023/10/24 02:32:30;;;;;;;23.50;11.73;;;;;;;-143.21;68.32;72454.91;4977404;28;20259;-91
2023/10/24 02:34:57;;;;;;;35.57;11.70;;;;;;;-143.21;68.34;72458.88;4988136;28;20204;-91
2023/10/24 02:37:24;;;;;;;26.43;10.90;;;;;;;-143.21;68.27;72458.88;4983799;28;20587;-90
2023/10/24 02:39:51;;;;;;;30.90;10.97;;;;;;;-143.21;68.26;72466.81;4984890;28;20212;-88
2023/10/24 02:42:18;;;;;;;27.63;11.43;;;;;;;-143.21;68.24;72462.84;4976518;28;20215;-86
2023/10/24 02:44:49;;;;;;;25.13;10.47;;;;;;;-143.21;68.67;72470.78;4989336;28;20296;-88
2023/10/24 02:47:16;;;;;;;26.97;11.00;;;;;;;-143.21;68.58;72470.78;4983802;28;20213;-89
2023/10/24 02:49:46;;;;;;;23.57;10.60;;;;;;;-143.21;68.55;72478.72;4982626;28;20200;-89
2023/10/24 02:52:13;;;;;;;27.60;10.20;;;;;;;-143.21;68.45;72478.72;4986880;28;20209;-89
2023/10/24 02:54:40;;;;;;;33.70;10.90;;;;;;;-143.21;68.22;72478.72;4982111;28;20204;-90
2023/10/24 02:57:07;;;;;;;31.90;10.70;;;;;;;-143.21;68.39;72486.66;4979504;28;20220;-88
2023/10/24 02:59:34;;;;;;;27.93;10.53;;;;;;;-143.21;68.39;72482.69;4982660;28;20283;-89
2023/10/24 03:02:00;;;;;;;27.17;10.83;;;;;;;-143.21;68.59;72486.66;4988762;28;20246;-89
2023/10/24 03:04:27;;;;;;;33.67;10.27;;;;;;;-143.21;68.58;72492.59;4981033;28;20263;-90
2023/10/24 03:06:56;;;;;;;23.83;9.93;;;;;;;-143.21;68.08;72486.66;4980112;28;20208;-90
2023/10/24 03:09:23;;;;;;;28.63;9.97;;;;;;;-143.21;68.24;72480.72;4980934;28;20217;-90
2023/10/24 03:11:50;;;;;;;34.63;10.53;;;;;;;-143.21;68.21;72486.66;4983628;28;20638;-89
2023/10/24 03:14:17;;;;;;;40.87;10.50;;;;;;;-143.21;68.49;72494.59;4990794;28;20215;-89
2023/10/24 03:16:44;;;;;;;28.40;10.60;;;;;;;-143.21;68.71;72512.44;4987306;28;20331;-90
2023/10/24 03:19:11;;;;;;;37.13;11.07;;;;;;;-143.21;68.73;72510.44;4987397;28;20331;-89
2023/10/24 03:21:38;;;;;;;29.43;11.37;;;;;;;-143.21;68.80;72514.41;4980983;28;20227;-90
2023/10/24 03:24:07;;;;;;;37.57;12.23;;;;;;;-143.21;68.76;72518.38;4980977;28;20225;-90
2023/10/24 03:26:34;;;;;;;35.97;12.70;;;;;;;-143.21;68.84;72528.31;4986067;28;20197;-91
2023/10/24 03:29:01;;;;;;;32.77;12.53;;;;;;;-143.21;68.70;72524.34;4985409;28;20249;-91
2023/10/24 03:31:28;;;;;;;32.60;12.90;;;;;;;-143.21;68.88;72534.25;4981609;28;20204;-89
2023/10/24 03:33:55;;;;;;;37.07;13.00;;;;;;;-143.21;69.11;72534.25;4991271;28;20205;-89
2023/10/24 03:36:22;;;;;;;33.87;13.23;;;;;;;-143.21;68.97;72526.31;4987879;28;20209;-88
2023/10/24 03:38:51;;;;;;;33.93;12.90;;;;;;;-143.21;69.21;72530.28;4994316;28;20208;-89
2023/10/24 03:41:19;;;;;;;38.90;14.27;;;;;;;-143.21;68.96;72536.25;4991218;28;20205;-89
2023/10/24 03:43:48;;;;;;;36.23;15.67;;;;;;;-143.21;69.24;72538.22;4985115;28;20217;-89
2023/10/24 03:46:15;;;;;;;38.53;14.30;;;;;;;-143.21;69.11;72546.16;4977727;28;20235;-88
2023/10/24 03:48:43;;;;;;;37.57;14.77;;;;;;;-143.21;69.05;72550.13;4982301;28;20201;-89
2023/10/24 03:51:10;;;;;;;37.00;13.93;;;;;;;-143.21;69.29;72538.22;4982420;28;20196;-89
2023/10/24 03:53:36;;;;;;;42.40;13.90;;;;;;;-143.21;69.51;72552.09;4982093;28;20203;-87
2023/10/24 03:56:04;;;;;;;37.10;14.03;;;;;;;-143.21;69.38;72554.09;4988051;28;20204;-88
2023/10/24 03:58:32;;;;;;;51.80;15.17;;;;;;;-143.21;69.58;72560.03;4975356;28;20204;-89
2023/10/24 04:01:05;;;;;;;43.23;15.10;;;;;;;-143.21;69.85;72564.00;4984654;28;20216;-89
2023/10/24 04:03:32;;;;;;;43.97;14.30;;;;;;;-143.21;69.72;72565.97;4975906;28;20684;-90
2023/10/24 04:05:59;;;;;;;35.97;13.50;;;;;;;-143.21;69.63;72565.97;4990207;28;20626;-89
2023/10/24 04:08:27;;;;;;;34.60;14.90;;;;;;;-143.21;69.70;72564.00;4979694;28;20271;-90
2023/10/24 04:10:54;;;;;;;36.70;13.77;;;;;;;-143.21;69.94;72575.91;4987445;28;20666;-89
2023/10/24 04:13:21;;;;;;;30.93;12.70;;;;;;;-143.21;70.35;72577.88;4981709;28;20205;-89
2023/10/24 04:15:52;;;;;;;27.87;12.67;;;;;;;-143.21;70.73;72581.84;4993399;28;20719;-89
2023/10/24 04:18:18;;;;;;;30.90;12.47;;;;;;;-143.21;70.85;72581.84;4975228;28;20221;-90
2023/10/24 04:20:45;;;;;;;35.17;13.00;;;;;;;-143.21;71.05;72591.78;4984923;28;20221;-83
2023/10/24 04:23:15;;;;;;;28.67;13.10;;;;;;;-143.21;70.56;72585.81;4985493;28;20233;-89
2023/10/24 04:25:42;;;;;;;42.17;13.63;;;;;;;-143.21;70.77;72585.81;4984080;28;20254;-88
2023/10/24 04:28:09;;;;;;;35.27;13.60;;;;;;;-143.21;70.58;72591.78;4974225;28;20240;-89
2023/10/24 04:30:39;;;;;;;27.97;12.93;;;;;;;-143.21;70.64;72601.69;4984493;28;20208;-90
2023/10/24 04:33:08;;;;;;;39.60;14.20;;;;;;;-143.21;70.73;72597.72;4980398;28;20286;-89
2023/10/24 04:35:43;;;;;;;45.97;17.47;;;;;;;-143.21;70.70;72605.66;4978525;28;20232;-86
2023/10/24 04:38:10;;;;;;;45.80;20.77;;;;;;;-143.21;70.59;72609.63;4977604;28;20215;-84
2023/10/24 04:40:40;;;;;;;64.17;31.40;;;;;;;-143.21;70.68;72617.56;4979676;28;20227;-84
2023/10/24 04:43:08;;;;;;;68.87;32.20;;;;;;;-143.21;70.65;72615.56;4975288;28;20244;-84
2023/10/24 04:45:36;;;;;;;60.70;29.27;;;;;;;-143.21;70.61;72607.63;4971482;28;20216;-83
2023/10/24 04:48:03;;;;;;;59.93;26.33;;;;;;;-143.21;70.70;72623.50;4981149;28;20212;-82
2023/10/24 04:50:32;;;;;;;65.57;29.87;;;;;;;-143.21;70.65;72615.56;4972631;28;20219;-83
2023/10/24 04:52:58;;;;;;;80.23;31.17;;;;;;;-143.21;70.07;72615.56;4980044;28;20223;-83
2023/10/24 04:55:25;;;;;;;64.37;29.87;;;;;;;-143.21;70.56;72617.56;4978381;28;20295;-84
2023/10/24 04:57:52;;;;;;;63.27;30.27;;;;;;;-143.21;70.97;72625.47;4989539;28;20314;-86
2023/10/24 05:00:19;;;;;;;65.20;29.07;;;;;;;-143.21;70.90;72625.47;4983599;28;20574;-86
2023/10/24 05:02:46;;;;;;;66.30;28.77;;;;;;;-143.21;70.99;72633.41;4967249;28;20207;-87
2023/10/24 05:05:13;;;;;;;67.97;28.50;;;;;;;-143.21;71.13;72635.41;4987597;28;20221;-86
2023/10/24 05:07:42;;;;;;;67.53;27.97;;;;;;;-143.21;71.08;72633.41;4974668;28;20197;-80
2023/10/24 05:10:10;;;;;;;53.40;24.60;;;;;;;-143.21;71.33;72635.41;4967122;28;20197;-79
2023/10/24 05:12:36;;;;;;;54.17;25.73;;;;;;;-143.21;71.33;72633.41;4970255;28;20295;-81
2023/10/24 05:15:04;;;;;;;63.00;24.23;;;;;;;-143.21;71.00;72627.47;4974522;28;20581;-80
2023/10/24 05:17:31;;;;;;;58.90;27.37;;;;;;;-143.21;70.86;72629.44;4974950;28;20341;-81
2023/10/24 05:19:59;;;;;;;33.97;14.33;;;;;;;-143.21;71.33;72629.44;4972639;28;20348;-80
2023/10/24 05:22:26;;;;;;;43.37;15.80;;;;;;;-143.21;71.52;72641.34;4975165;28;20217;-80
2023/10/24 05:25:02;;;;;;;41.40;16.23;;;;;;;-143.21;71.75;72637.38;4979641;28;20224;-80
2023/10/24 05:27:31;;;;;;;37.13;19.47;;;;;;;-143.21;71.40;72629.44;4977202;28;20239;-81
2023/10/24 05:29:58;;;;;;;41.07;18.90;;;;;;;-143.21;71.25;72621.53;4973552;28;20216;-81
2023/10/24 05:32:25;;;;;;;58.77;19.33;;;;;;;-143.21;71.00;72625.47;4982338;28;20578;-82
2023/10/24 05:34:52;;;;;;;53.03;17.97;;;;;;;-143.21;71.35;72625.47;4978904;28;20217;-82
2023/10/24 05:37:19;;;;;;;40.43;17.60;;;;;;;-143.21;71.57;72623.50;4979879;28;20701;-82
2023/10/24 05:39:45;;;;;;;49.33;17.37;;;;;;;-143.21;71.59;72623.50;4980810;28;20211;-81
2023/10/24 05:42:14;;;;;;;51.70;17.30;;;;;;;-143.21;71.52;72617.56;4976398;28;20213;-81
2023/10/24 05:44:40;;;;;;;40.87;15.50;;;;;;;-143.21;71.50;72617.56;4978091;28;20229;-82
2023/10/24 05:47:07;;;;;;;46.47;15.83;;;;;;;-143.21;71.35;72625.47;4969016;28;20638;-82
2023/10/24 05:49:34;;;;;;;46.30;16.77;;;;;;;-143.21;71.43;72621.53;4979516;28;20205;-80
2023/10/24 05:52:01;;;;;;;45.70;17.60;;;;;;;-143.21;71.56;72621.53;4968379;28;20220;-81
2023/10/24 05:54:28;;;;;;;37.93;15.73;;;;;;;-143.21;71.81;72619.53;4977987;28;20618;-81
2023/10/24 05:56:54;;;;;;;46.03;16.57;;;;;;;-143.21;71.60;72601.69;4977935;28;20212;-81
2023/10/24 05:59:23;;;;;;;41.90;17.43;;;;;;;-143.21;71.57;72599.69;4982085;28;20211;-86
2023/10/24 06:01:50;;;;;;;48.90;16.03;;;;;;;-143.21;71.77;72593.75;4982553;28;20196;-86
2023/10/24 06:04:16;;;;;;;40.80;15.83;;;;;;;-143.21;71.94;72593.75;4982010;28;20233;-86
2023/10/24 06:06:43;;;;;;;45.60;17.07;;;;;;;-143.21;71.77;72583.84;4975520;28;20208;-84
2023/10/24 06:09:12;;;;;;;42.23;14.70;;;;;;;-143.21;71.59;72575.91;4972668;28;20582;-86
2023/10/24 06:11:39;;;;;;;47.20;13.30;;;;;;;-143.21;71.36;72571.94;4981524;28;20667;-85
2023/10/24 06:14:06;;;;;;;28.67;13.43;;;;;;;-143.21;71.42;72560.03;4972161;28;20666;-86
2023/10/24 06:16:34;;;;;;;36.43;13.00;;;;;;;-143.21;71.45;72552.09;4985439;28;20208;-85
2023/10/24 06:19:01;;;;;;;39.27;12.33;;;;;;;-143.21;71.53;72540.19;4982968;28;20212;-86
2023/10/24 06:21:28;;;;;;;32.80;12.60;;;;;;;-143.21;71.73;72536.25;4975318;28;20213;-86
2023/10/24 06:23:57;;;;;;;40.00;12.83;;;;;;;-143.21;71.14;72518.38;4971814;28;20248;-87
2023/10/24 06:26:24;;;;;;;37.33;13.47;;;;;;;-143.21;71.25;72508.47;4982793;28;20204;-86
2023/10/24 06:28:50;;;;;;;33.23;12.47;;;;;;;-143.21;71.05;72506.50;4976363;28;20236;-85
2023/10/24 06:31:18;;;;;;;41.73;14.90;;;;;;;-143.21;70.75;72502.53;4979465;28;20208;-86
2023/10/24 06:33:46;;;;;;;38.43;14.93;;;;;;;-143.21;70.88;72492.59;4974249;28;20606;-87
2023/10/24 06:36:13;;;;;;;44.17;13.23;;;;;;;-143.21;70.67;72490.63;4978156;28;20205;-86
2023/10/24 06:38:40;;;;;;;35.63;12.20;;;;;;;-143.21;70.34;72486.66;4975366;28;20746;-84
2023/10/24 06:41:08;;;;;;;34.17;12.17;;;;;;;-143.21;70.37;72478.72;4968985;28;20212;-86
2023/10/24 06:43:35;;;;;;;38.70;13.80;;;;;;;-143.21;69.80;72464.84;4969629;28;20292;-82
2023/10/24 06:46:04;;;;;;;41.37;12.63;;;;;;;-143.21;69.75;72454.91;4970003;28;20232;-86
2023/10/24 06:48:32;;;;;;;37.57;13.10;;;;;;;-143.21;69.47;72458.88;4984619;28;20292;-86
2023/10/24 06:51:00;;;;;;;27.80;12.17;;;;;;;-143.21;69.80;72458.88;4979217;28;20236;-87
2023/10/24 06:53:27;;;;;;;43.47;13.20;;;;;;;-143.21;69.67;72452.94;4977027;28;20656;-82
2023/10/24 06:55:59;;;;;;;32.40;12.20;;;;;;;-143.21;69.71;72448.97;4987804;28;20204;-84
2023/10/24 06:58:26;;;;;;;40.53;12.80;;;;;;;-143.21;69.21;72437.06;4982253;28;20231;-82
2023/10/24 07:00:53;;;;;;;35.00;12.83;;;;;;;-143.21;68.99;72423.19;4980050;28;20196;-82
2023/10/24 07:03:20;;;;;;;34.33;12.70;;;;;;;-143.21;69.08;72415.25;4977277;28;20757;-83
2023/10/24 07:05:51;;;;;;;30.10;12.60;;;;;;;-143.21;68.63;72413.28;4977368;28;20221;-82
2023/10/24 07:08:19;;;;;;;40.40;12.67;;;;;;;-143.21;68.82;72415.25;4976547;28;20686;-82
2023/10/24 07:10:46;;;;;;;37.87;12.47;;;;;;;-143.21;68.83;72401.38;4981719;28;20282;-81
2023/10/24 07:13:13;;;;;;;33.70;13.37;;;;;;;-143.21;68.26;72391.47;4984195;28;20211;-82
2023/10/24 07:15:40;;;;;;;42.10;13.10;;;;;;;-143.21;68.13;72377.56;4977710;28;20696;-84
2023/10/24 07:18:08;;;;;;;34.87;12.77;;;;;;;-143.21;68.00;72365.69;4971870;28;20585;-86
2023/10/24 07:20:38;;;;;;;36.30;13.43;;;;;;;-143.21;68.03;72361.72;4977238;28;20207;-83
2023/10/24 07:23:05;;;;;;;31.60;13.07;;;;;;;-143.21;67.70;72347.84;4984070;28;20412;-82
2023/10/24 07:25:37;;;;;;;43.43;13.67;;;;;;;-143.21;67.43;72335.94;4973920;28;20228;-83
2023/10/24 07:28:05;;;;;;;38.13;13.53;;;;;;;-143.21;67.05;72324.03;4980850;28;20662;-84
2023/10/24 07:30:32;;;;;;;37.33;13.20;;;;;;;-143.21;66.61;72318.09;4980647;28;20322;-83
2023/10/24 07:32:59;;;;;;;42.43;12.40;;;;;;;-143.21;66.90;72296.28;4975201;28;20219;-84
2023/10/24 07:35:27;;;;;;;27.43;13.33;;;;;;;-143.21;66.93;72292.31;4980225;28;20212;-86
2023/10/24 07:38:00;;;;;;;36.53;13.20;;;;;;;-143.21;66.36;72282.38;4975284;28;20212;-82
2023/10/24 07:40:28;;;;;;;39.17;14.47;;;;;;;-143.21;65.83;72274.47;4977156;28;20208;-83
2023/10/24 07:42:56;;;;;;;31.87;14.17;;;;;;;-143.21;65.14;72258.59;4994226;28;20262;-82
2023/10/24 07:45:22;;;;;;;43.97;14.53;;;;;;;-143.21;64.62;72248.66;4993638;28;20299;-81
2023/10/24 07:47:49;;;;;;;41.80;14.07;;;;;;;-143.21;63.54;72226.84;4993622;28;20197;-83
2023/10/24 07:50:16;;;;;;;41.80;12.50;;;;;;;-143.21;63.73;72222.91;4993279;28;20574;-82
2023/10/24 07:52:43;;;;;;;39.47;13.87;;;;;;;-143.21;63.49;72214.97;4993140;28;20196;-82
2023/10/24 07:55:10;;;;;;;38.87;13.47;;;;;;;-143.21;62.89;72197.13;4993018;28;20195;-81
2023/10/24 07:57:37;;;;;;;30.47;14.03;;;;;;;-143.21;62.57;72175.31;4993515;28;20196;-82
2023/10/24 08:00:07;;;;;;;34.70;14.57;;;;;;;-143.21;62.16;72179.25;4993289;28;20196;-82
2023/10/24 08:02:35;;;;;;;40.53;14.20;;;;;;;-143.21;62.65;72179.25;4993740;28;20271;-82
2023/10/24 08:05:03;;;;;;;34.40;13.53;;;;;;;-143.21;62.12;72167.38;4993501;28;20275;-82
2023/10/24 08:07:30;;;;;;;43.50;13.47;;;;;;;-143.21;62.06;72161.41;4992533;28;20200;-82
2023/10/24 08:09:57;;;;;;;37.00;12.87;;;;;;;-143.21;60.90;72155.47;4990710;28;20200;-82
2023/10/24 08:12:24;;;;;;;33.40;12.53;;;;;;;-143.21;60.57;72141.59;4993930;28;20219;-82
2023/10/24 08:14:51;;;;;;;41.30;13.07;;;;;;;-143.21;60.15;72123.75;4993466;28;20192;-82
2023/10/24 08:17:19;;;;;;;42.37;14.30;;;;;;;-143.21;60.00;72115.81;4993412;28;20204;-82
2023/10/24 08:19:46;;;;;;;39.83;13.10;;;;;;;-143.21;59.77;72103.91;4993446;28;20662;-82
2023/10/24 08:22:13;;;;;;;32.63;13.40;;;;;;;-143.21;59.05;72094.00;4993401;28;20204;-82
2023/10/24 08:24:40;;;;;;;37.30;14.13;;;;;;;-143.21;58.68;72076.16;4993037;28;20219;-81
2023/10/24 08:27:06;;;;;;;42.97;13.77;;;;;;;-143.21;58.51;72070.19;4993624;28;20278;-81
2023/10/24 08:29:33;;;;;;;32.17;12.67;;;;;;;-143.21;57.95;72048.38;4993257;28;20203;-81
2023/10/24 08:32:00;;;;;;;37.97;12.10;;;;;;;-143.21;57.86;72038.47;4992908;28;20199;-81
2023/10/24 08:34:28;;;;;;;31.40;12.57;;;;;;;-143.21;57.03;72018.63;4992911;28;20335;-81
2023/10/24 08:36:55;;;;;;;43.50;12.82;;;;;;;-143.21;56.53;72004.75;4993152;28;20682;-81
2023/10/24 08:39:23;;;;;;;33.47;12.75;;;;;;;-143.21;56.37;71986.91;4993077;28;20204;-81
2023/10/24 08:41:53;;;;;;;34.40;12.63;;;;;;;-143.21;56.00;71951.22;4992933;28;20239;-81
2023/10/24 08:44:22;;;;;;;36.13;12.00;;;;;;;-143.21;55.02;71923.47;4992689;28;20232;-81
2023/10/24 08:46:50;;;;;;;33.60;11.52;;;;;;;-143.21;54.25;71889.75;4992208;28;20192;-82
2023/10/24 08:49:18;;;;;;;36.25;10.77;;;;;;;-143.21;52.87;71852.06;4992634;28;20196;-80
2023/10/24 08:51:47;;;;;;;29.33;10.95;;;;;;;-143.21;51.83;71824.31;4992785;28;20197;-81
2023/10/24 08:54:14;;;;;;;33.55;11.30;;;;;;;-143.21;51.28;71786.63;4992041;28;20204;-81
2023/10/24 08:56:42;;;;;;;32.47;12.13;;;;;;;-143.21;50.36;71770.78;4992633;28;20196;-82
2023/10/24 08:59:12;;;;;;;34.20;11.60;;;;;;;-143.21;49.97;71750.94;4993204;28;20624;-81
2023/10/24 09:01:41;;;;;;;33.83;11.75;;;;;;;-143.21;48.94;71746.97;4992441;28;20207;-81
2023/10/24 09:04:08;;;;;;;34.35;11.23;;;;;;;-143.21;49.40;71725.16;4992878;28;20200;-81
2023/10/24 09:06:35;;;;;;;33.60;11.07;;;;;;;-143.21;48.52;71701.38;4992655;28;20228;-81
2023/10/24 09:09:04;;;;;;;30.58;10.95;;;;;;;-143.21;48.12;71675.59;4985599;28;20586;-81
2023/10/24 09:11:53;;;;;;;35.75;11.95;;;;;;;-143.21;47.71;71649.81;4973175;28;20200;-81
2023/10/24 09:14:20;;;;;;;43.67;11.80;;;;;;;-143.21;47.11;71641.91;4973298;28;20278;-81
2023/10/24 09:16:53;;;;;;;38.58;12.35;;;;;;;-143.21;46.86;71626.03;4972556;28;20203;-81
2023/10/24 09:19:20;;;;;;;38.88;13.27;;;;;;;-143.21;46.74;71610.16;4973010;28;20644;-81
2023/10/24 09:21:46;;;;;;;43.72;12.20;;;;;;;-143.21;46.15;71596.28;4972959;28;20208;-81
2023/10/24 09:24:16;;;;;;;32.92;11.48;;;;;;;-143.21;45.39;71584.41;4973121;28;20208;-81
2023/10/24 09:26:51;;;;;;;36.30;13.65;;;;;;;-143.21;45.47;71572.50;4972932;28;20224;-81
2023/10/24 09:29:18;;;;;;;38.97;12.93;;;;;;;-143.21;45.56;71542.75;4973128;28;20266;-81
2023/10/24 09:31:48;;;;;;;40.78;12.00;;;;;;;-143.21;44.42;71501.13;4972657;28;20226;-81
2023/10/24 09:34:16;;;;;;;32.92;13.02;;;;;;;-143.21;43.44;71459.47;4972792;28;20626;-82
2023/10/24 09:36:43;;;;;;;38.90;12.48;;;;;;;-143.21;42.67;71417.84;4972784;28;20203;-80
2023/10/24 09:39:12;;;;;;;31.30;11.80;;;;;;;-143.21;42.26;71374.22;4972239;28;20604;-81
2023/10/24 09:41:41;;;;;;;30.02;11.68;;;;;;;-143.21;41.59;71340.53;4972673;28;20197;-81
2023/10/24 09:44:08;;;;;;;48.45;12.55;;;;;;;-143.21;40.87;71294.94;4972690;28;20197;-80
2023/10/24 09:46:36;;;;;;;39.38;12.77;;;;;;;-143.21;39.79;71255.28;4972054;28;20220;-81
2023/10/24 09:49:04;;;;;;;33.92;11.13;;;;;;;-143.21;39.50;71215.63;4972838;28;20201;-81
2023/10/24 09:51:32;;;;;;;30.00;11.25;;;;;;;-143.21;38.39;71181.94;4972716;28;20634;-81
2023/10/24 09:54:00;;;;;;;30.73;11.50;;;;;;;-143.21;37.73;71158.13;4972569;28;20193;-80
2023/10/24 09:56:27;;;;;;;29.60;11.40;;;;;;;-143.21;37.58;71136.31;4972732;28;20193;-81
2023/10/24 09:58:56;;;;;;;32.95;11.25;;;;;;;-143.21;37.02;71114.53;4972567;28;20197;-81
2023/10/24 10:01:23;;;;;;;41.50;11.90;;;;;;;-143.21;37.13;71094.69;4972977;28;20228;-81
2023/10/24 10:03:51;;;;;;;37.55;10.40;;;;;;;-143.21;36.47;71072.88;4972727;28;20197;-81
2023/10/24 10:06:18;;;;;;;28.35;9.50;;;;;;;-143.21;36.26;71047.13;4972707;28;20259;-81
2023/10/24 10:08:59;;;;;;;41.28;9.55;;;;;;;-143.21;35.90;71023.34;4967883;28;20213;-81
2023/10/24 10:11:28;;;;;;;36.00;9.13;;;;;;;-143.21;35.87;71015.41;4981481;28;20561;-82
2023/10/24 10:14:04;;;;;;;30.40;9.40;;;;;;;-143.21;35.81;71029.28;4991669;28;20207;-82
2023/10/24 10:16:46;;;;;;;30.50;8.93;;;;;;;-143.21;35.63;71031.25;4991837;28;20250;-82
2023/10/24 10:19:35;;;;;;;30.17;8.88;;;;;;;-143.21;35.84;71027.28;4992273;28;20212;-82
2023/10/24 10:22:18;;;;;;;23.55;7.82;;;;;;;-143.21;35.74;71025.31;4992216;28;20185;-82
2023/10/24 10:25:08;;;;;;;38.17;8.30;;;;;;;-143.21;35.64;71023.34;4991830;28;20251;-81
2023/10/24 10:27:45;;;;;;;30.85;8.18;;;;;;;-143.21;35.94;71009.44;4994598;28;20240;-82
2023/10/24 10:30:21;;;;;;;32.78;9.13;;;;;;;-143.21;35.68;71001.53;4995549;28;20638;-82
2023/10/24 10:32:56;;;;;;;30.60;8.98;;;;;;;-143.21;35.50;70991.63;4995489;28;20192;-81
2023/10/24 10:35:54;;;;;;;28.83;8.40;;;;;;;-143.21;35.16;70987.66;4995712;28;20184;-82
2023/10/24 10:38:38;;;;;;;36.20;8.30;;;;;;;-143.21;35.48;70979.72;4995215;28;20287;-82
2023/10/24 10:41:40;;;;;;;26.90;8.45;;;;;;;-143.21;35.33;70965.84;4996083;28;20196;-80
2023/10/24 10:44:39;;;;;;;30.10;9.82;;;;;;;-143.21;35.42;70951.97;4994962;28;20584;-80
2023/10/24 10:47:09;;;;;;;36.30;9.77;;;;;;;-143.21;35.11;70949.97;4988175;28;20227;-80
2023/10/24 10:49:43;;;;;;;24.48;8.52;;;;;;;-143.21;35.15;70940.06;4995272;28;20712;-81
2023/10/24 10:52:19;;;;;;;30.95;9.30;;;;;;;-143.21;35.29;70942.06;4995495;28;20188;-82
2023/10/24 10:54:55;;;;;;;29.92;8.95;;;;;;;-143.21;34.87;70938.09;4995455;28;20188;-82
2023/10/24 10:57:29;;;;;;;30.65;8.30;;;;;;;-143.21;35.12;70924.22;4994930;28;20639;-82
2023/10/24 11:00:03;;;;;;;24.88;8.40;;;;;;;-143.21;34.83;70918.25;4971935;28;20739;-82
2023/10/24 11:02:52;;;;;;;40.13;9.90;;;;;;;-143.21;34.64;70894.47;4956166;29;20210;-80
2023/10/24 11:05:50;;;;;;;31.85;9.00;;;;;;;-143.21;34.44;70864.75;4955932;29;20241;-80
2023/10/24 11:08:22;;;;;;;37.90;9.65;;;;;;;-143.21;34.23;70860.78;4955567;29;20249;-80
2023/10/24 11:11:07;;;;;;;29.27;9.15;;;;;;;-143.21;34.43;70866.72;4955886;29;20680;-81
2023/10/24 11:13:40;;;;;;;34.67;9.07;;;;;;;-143.21;34.72;70854.84;4955831;29;21040;-81